createdAt,value
2023-03-26T00:00:29.159Z,98414.00
2023-03-26T00:02:32.234Z,98414.19
2023-03-26T00:04:35.208Z,98412.09
2023-03-26T00:06:40.707Z,98418.75
2023-03-26T00:08:45.529Z,98405.56
2023-03-26T00:10:48.407Z,98406.97
2023-03-26T00:12:52.748Z,98411.06
2023-03-26T00:14:55.591Z,98417.19
2023-03-26T00:16:58.665Z,98402.88
2023-03-26T00:19:02.690Z,98406.47
2023-03-26T00:21:08.257Z,98402.19
2023-03-26T00:23:10.854Z,98396.34
2023-03-26T00:25:14.448Z,98400.53
2023-03-26T00:27:17.926Z,98392.31
2023-03-26T00:29:28.278Z,98390.56
2023-03-26T00:31:31.609Z,98382.97
2023-03-26T00:33:38.813Z,98382.88
2023-03-26T00:35:43.551Z,98382.38
2023-03-26T00:37:46.679Z,98376.25
2023-03-26T00:39:49.575Z,98388.44
2023-03-26T00:41:54.766Z,98381.44
2023-03-26T00:43:59.863Z,98382.50
2023-03-26T00:46:04.699Z,98378.97
2023-03-26T00:48:08.059Z,98373.84
2023-03-26T00:50:15.812Z,98375.59
2023-03-26T00:52:21.541Z,98373.44
2023-03-26T00:54:24.612Z,98375.88
2023-03-26T00:56:27.892Z,98365.50
2023-03-26T00:58:31.255Z,98366.44
2023-03-26T01:00:37.137Z,98359.34
2023-03-26T01:02:41.758Z,98356.91
2023-03-26T01:04:47.850Z,98360.97
2023-03-26T01:06:51.201Z,98365.16
2023-03-26T01:09:00.456Z,98359.22
2023-03-26T01:11:07.951Z,98370.34
2023-03-26T01:13:11.154Z,98359.41
2023-03-26T01:15:14.231Z,98362.91
2023-03-26T01:17:18.172Z,98365.16
2023-03-26T01:19:30.278Z,98359.41
2023-03-26T01:21:34.835Z,98359.81
2023-03-26T01:23:43.331Z,98363.81
2023-03-26T01:25:56.282Z,98368.22
2023-03-26T01:27:59.510Z,98375.63
2023-03-26T01:30:11.527Z,98368.56
2023-03-26T01:32:33.249Z,98367.53
2023-03-26T01:34:50.049Z,98376.03
2023-03-26T01:37:00.450Z,98382.91
2023-03-26T01:39:10.452Z,98381.44
2023-03-26T01:41:21.969Z,98381.81
2023-03-26T01:43:31.491Z,98364.38
2023-03-26T01:45:38.648Z,98368.53
2023-03-26T01:47:42.722Z,98361.53
2023-03-26T01:49:45.769Z,98356.00
2023-03-26T01:51:48.895Z,98343.81
2023-03-26T01:53:53.382Z,98352.19
2023-03-26T01:56:06.331Z,98356.44
2023-03-26T01:58:18.253Z,98361.19
2023-03-26T02:00:26.310Z,98357.13
2023-03-26T02:02:39.139Z,98355.84
2023-03-26T02:04:53.617Z,98351.50
2023-03-26T02:07:06.052Z,98344.88
2023-03-26T02:09:13.341Z,98343.84
2023-03-26T02:11:16.738Z,98341.06
2023-03-26T02:13:21.899Z,98336.44
2023-03-26T02:15:25.052Z,98336.44
2023-03-26T02:17:30.535Z,98336.88
2023-03-26T02:19:33.078Z,98341.19
2023-03-26T02:21:36.092Z,98336.06
2023-03-26T02:23:40.686Z,98339.53
2023-03-26T02:25:44.166Z,98340.34
2023-03-26T02:27:47.985Z,98346.88
2023-03-26T02:29:52.945Z,98346.22
2023-03-26T02:31:58.969Z,98349.13
2023-03-26T02:34:02.296Z,98347.38
2023-03-26T02:36:09.095Z,98346.81
2023-03-26T02:38:15.057Z,98343.31
2023-03-26T02:40:21.413Z,98337.38
2023-03-26T02:42:25.330Z,98333.09
2023-03-26T02:44:28.962Z,98340.72
2023-03-26T02:46:36.209Z,98330.84
2023-03-26T02:49:08.729Z,98324.31
2023-03-26T02:51:11.689Z,98322.84
2023-03-26T02:53:34.443Z,98312.50
2023-03-26T02:56:01.445Z,98318.94
2023-03-26T02:58:12.603Z,98308.84
2023-03-26T03:00:17.467Z,98315.13
2023-03-26T03:03:00.222Z,98316.53
2023-03-26T03:05:08.284Z,98302.13
2023-03-26T03:07:14.684Z,98317.00
2023-03-26T03:09:19.405Z,98312.25
2023-03-26T03:11:41.725Z,98318.91
2023-03-26T03:13:46.184Z,98330.19
2023-03-26T03:15:53.524Z,98332.63
2023-03-26T03:17:56.727Z,98330.88
2023-03-26T03:20:03.528Z,98328.88
2023-03-26T03:22:07.610Z,98335.16
2023-03-26T03:24:14.129Z,98333.19
2023-03-26T03:26:23.618Z,98315.63
2023-03-26T03:28:28.495Z,98329.94
2023-03-26T03:30:31.591Z,98325.16
2023-03-26T03:32:58.680Z,98320.25
2023-03-26T03:35:06.132Z,98320.59
2023-03-26T03:37:09.291Z,98320.28
2023-03-26T03:39:20.361Z,98330.03
2023-03-26T03:41:23.450Z,98327.25
2023-03-26T03:43:27.920Z,98324.56
2023-03-26T03:45:39.292Z,98334.56
2023-03-26T03:48:08.110Z,98329.09
2023-03-26T03:50:22.022Z,98329.22
2023-03-26T03:52:42.612Z,98327.00
2023-03-26T03:54:45.613Z,98330.84
2023-03-26T03:57:02.407Z,98334.56
2023-03-26T03:59:09.332Z,98332.94
2023-03-26T04:01:13.918Z,98338.19
2023-03-26T04:03:33.442Z,98331.44
2023-03-26T04:05:39.449Z,98338.41
2023-03-26T04:07:42.530Z,98341.53
2023-03-26T04:10:00.304Z,98334.09
2023-03-26T04:12:08.379Z,98328.19
2023-03-26T04:14:16.929Z,98334.09
2023-03-26T04:16:32.552Z,98328.88
2023-03-26T04:18:37.895Z,98329.59
2023-03-26T04:20:51.169Z,98335.28
2023-03-26T04:23:02.052Z,98336.09
2023-03-26T04:25:05.629Z,98338.31
2023-03-26T04:27:20.608Z,98332.38
2023-03-26T04:29:28.210Z,98334.09
2023-03-26T04:31:31.578Z,98321.59
2023-03-26T04:33:36.258Z,98335.63
2023-03-26T04:35:42.084Z,98332.03
2023-03-26T04:37:49.010Z,98327.47
2023-03-26T04:40:02.775Z,98328.84
2023-03-26T04:42:14.730Z,98322.91
2023-03-26T04:44:30.777Z,98323.25
2023-03-26T04:46:38.072Z,98333.00
2023-03-26T04:48:51.373Z,98327.97
2023-03-26T04:50:54.733Z,98333.56
2023-03-26T04:53:00.369Z,98333.59
2023-03-26T04:55:39.810Z,98329.69
2023-03-26T04:57:56.771Z,98332.69
2023-03-26T05:00:20.759Z,98331.28
2023-03-26T05:02:29.289Z,98332.69
2023-03-26T05:04:35.026Z,98337.44
2023-03-26T05:06:38.376Z,98338.81
2023-03-26T05:08:51.048Z,98333.75
2023-03-26T05:11:11.931Z,98343.53
2023-03-26T05:13:15.023Z,98349.31
2023-03-26T05:15:24.327Z,98346.22
2023-03-26T05:17:42.601Z,98347.16
2023-03-26T05:19:53.505Z,98349.69
2023-03-26T05:21:56.756Z,98344.59
2023-03-26T05:24:02.412Z,98352.88
2023-03-26T05:26:07.885Z,98349.38
2023-03-26T05:28:11.885Z,98355.78
2023-03-26T05:30:24.115Z,98335.88
2023-03-26T05:32:31.845Z,98342.84
2023-03-26T05:34:34.987Z,98347.88
2023-03-26T05:36:39.529Z,98351.25
2023-03-26T05:39:03.891Z,98337.75
2023-03-26T05:41:38.913Z,98341.81
2023-03-26T05:43:42.490Z,98340.66
2023-03-26T05:45:52.805Z,98342.50
2023-03-26T05:48:03.179Z,98324.72
2023-03-26T05:50:07.917Z,98336.59
2023-03-26T05:52:15.608Z,98332.75
2023-03-26T05:54:48.970Z,98339.03
2023-03-26T05:57:12.612Z,98341.94
2023-03-26T05:59:33.933Z,98341.25
2023-03-26T06:02:00.235Z,98333.56
2023-03-26T06:04:13.876Z,98341.50
2023-03-26T06:06:23.213Z,98347.88
2023-03-26T06:08:32.534Z,98346.00
2023-03-26T06:10:39.588Z,98349.72
2023-03-26T06:12:42.797Z,98351.94
2023-03-26T06:14:47.491Z,98335.31
2023-03-26T06:16:58.846Z,98344.41
2023-03-26T06:19:01.914Z,98343.44
2023-03-26T06:21:23.245Z,98347.63
2023-03-26T06:23:37.053Z,98357.41
2023-03-26T06:25:49.286Z,98354.38
2023-03-26T06:28:20.196Z,98361.38
2023-03-26T06:31:00.057Z,98358.72
2023-03-26T06:33:09.049Z,98357.66
2023-03-26T06:35:19.230Z,98365.34
2023-03-26T06:37:22.414Z,98371.50
2023-03-26T06:39:30.283Z,98364.63
2023-03-26T06:41:49.484Z,98365.22
2023-03-26T06:44:18.533Z,98352.41
2023-03-26T06:46:40.208Z,98364.06
2023-03-26T06:49:01.605Z,98362.63
2023-03-26T06:51:23.491Z,98371.50
2023-03-26T06:53:44.889Z,98372.41
2023-03-26T06:56:09.341Z,98369.38
2023-03-26T06:58:32.180Z,98367.59
2023-03-26T07:00:54.770Z,98369.81
2023-03-26T07:03:17.612Z,98363.72
2023-03-26T07:05:39.176Z,98361.00
2023-03-26T07:07:57.010Z,98367.50
2023-03-26T07:10:32.224Z,98363.63
2023-03-26T07:12:57.691Z,98370.31
2023-03-26T07:15:20.091Z,98361.22
2023-03-26T07:17:41.708Z,98367.38
2023-03-26T07:20:09.379Z,98361.22
2023-03-26T07:22:19.362Z,98371.78
2023-03-26T07:24:41.156Z,98370.59
2023-03-26T07:26:55.774Z,98374.81
2023-03-26T07:29:08.023Z,98363.69
2023-03-26T07:31:36.422Z,98364.66
2023-03-26T07:34:06.532Z,98364.75
2023-03-26T07:36:26.049Z,98364.69
2023-03-26T07:38:57.853Z,98374.50
2023-03-26T07:41:30.855Z,98362.94
2023-03-26T07:44:12.675Z,98368.19
2023-03-26T07:46:32.369Z,98371.19
2023-03-26T07:48:55.386Z,98370.47
2023-03-26T07:51:19.731Z,98374.56
2023-03-26T07:53:42.373Z,98367.41
2023-03-26T07:56:03.072Z,98372.69
2023-03-26T07:58:30.809Z,98370.34
2023-03-26T08:00:57.458Z,98363.25
2023-03-26T08:03:17.646Z,98369.63
2023-03-26T08:05:28.888Z,98367.19
2023-03-26T08:08:12.050Z,98362.16
2023-03-26T08:10:26.891Z,98357.34
2023-03-26T08:12:42.831Z,98368.78
2023-03-26T08:14:53.377Z,98368.06
2023-03-26T08:17:04.897Z,98362.22
2023-03-26T08:19:25.778Z,98357.84
2023-03-26T08:21:35.358Z,98355.84
2023-03-26T08:23:50.813Z,98354.66
2023-03-26T08:26:02.858Z,98359.44
2023-03-26T08:28:20.047Z,98357.34
2023-03-26T08:30:25.767Z,98358.22
2023-03-26T08:32:29.314Z,98357.16
2023-03-26T08:34:33.686Z,98355.31
2023-03-26T08:36:37.291Z,98351.63
2023-03-26T08:38:40.209Z,98355.06
2023-03-26T08:41:20.302Z,98347.91
2023-03-26T08:43:54.397Z,98349.03
2023-03-26T08:46:30.640Z,98347.19
2023-03-26T08:49:02.532Z,98348.06
2023-03-26T08:51:52.933Z,98347.66
2023-03-26T08:54:24.845Z,98351.56
2023-03-26T08:56:38.871Z,98347.81
2023-03-26T08:59:14.685Z,98350.09
2023-03-26T09:01:56.789Z,98350.34
2023-03-26T09:04:16.929Z,98351.16
2023-03-26T09:06:42.366Z,98348.66
2023-03-26T09:09:27.730Z,98349.63
2023-03-26T09:11:59.137Z,98346.38
2023-03-26T09:14:28.364Z,98339.59
2023-03-26T09:17:07.857Z,98345.13
2023-03-26T09:19:49.181Z,98338.63
2023-03-26T09:22:27.008Z,98332.63
2023-03-26T09:25:08.411Z,98333.69
2023-03-26T09:27:41.769Z,98335.59
2023-03-26T09:30:19.019Z,98334.75
2023-03-26T09:32:41.449Z,98337.09
2023-03-26T09:35:03.834Z,98343.16
2023-03-26T09:37:18.361Z,98345.22
2023-03-26T09:39:34.972Z,98346.13
2023-03-26T09:41:44.214Z,98344.44
2023-03-26T09:44:19.056Z,98334.63
2023-03-26T09:46:35.259Z,98337.28
2023-03-26T09:48:54.388Z,98343.22
2023-03-26T09:51:07.449Z,98333.88
2023-03-26T09:53:26.930Z,98328.28
2023-03-26T09:56:04.957Z,98333.94
2023-03-26T09:58:32.750Z,98322.75
2023-03-26T10:00:44.816Z,98325.16
2023-03-26T10:03:08.734Z,98324.31
2023-03-26T10:05:50.012Z,98318.50
2023-03-26T10:08:32.085Z,98317.47
2023-03-26T10:10:43.770Z,98311.41
2023-03-26T10:12:52.767Z,98308.44
2023-03-26T10:15:19.339Z,98312.44
2023-03-26T10:17:37.867Z,98312.91
2023-03-26T10:20:05.158Z,98318.16
2023-03-26T10:22:23.249Z,98311.66
2023-03-26T10:24:57.130Z,98312.34
2023-03-26T10:27:17.476Z,98320.53
2023-03-26T10:29:40.208Z,98319.53
2023-03-26T10:31:46.689Z,98320.59
2023-03-26T10:34:00.115Z,98326.00
2023-03-26T10:36:27.190Z,98328.41
2023-03-26T10:38:51.878Z,98329.94
2023-03-26T10:41:07.089Z,98325.16
2023-03-26T10:43:41.065Z,98316.78
2023-03-26T10:46:11.031Z,98325.59
2023-03-26T10:48:31.766Z,98319.16
2023-03-26T10:50:52.637Z,98313.66
2023-03-26T10:53:03.728Z,98309.06
2023-03-26T10:55:14.333Z,98308.00
2023-03-26T10:57:29.359Z,98301.97
2023-03-26T10:59:32.408Z,98302.97
2023-03-26T11:01:42.672Z,98299.72
2023-03-26T11:03:55.116Z,98303.63
2023-03-26T11:06:09.735Z,98292.59
2023-03-26T11:08:31.889Z,98288.59
2023-03-26T11:10:46.530Z,98288.09
2023-03-26T11:12:55.761Z,98272.09
2023-03-26T11:15:07.978Z,98277.44
2023-03-26T11:17:40.021Z,98265.28
2023-03-26T11:19:53.303Z,98261.28
2023-03-26T11:22:02.123Z,98266.28
2023-03-26T11:24:33.749Z,98265.59
2023-03-26T11:26:51.878Z,98251.25
2023-03-26T11:29:31.673Z,98261.81
2023-03-26T11:31:50.230Z,98250.81
2023-03-26T11:33:59.166Z,98248.78
2023-03-26T11:36:08.819Z,98253.97
2023-03-26T11:38:19.585Z,98239.34
2023-03-26T11:40:28.174Z,98246.44
2023-03-26T11:42:31.537Z,98240.28
2023-03-26T11:44:39.292Z,98237.88
2023-03-26T11:46:46.186Z,98234.66
2023-03-26T11:48:54.085Z,98240.34
2023-03-26T11:51:02.801Z,98234.41
2023-03-26T11:53:13.007Z,98224.94
2023-03-26T11:55:16.255Z,98219.03
2023-03-26T11:57:26.677Z,98217.97
2023-03-26T11:59:33.817Z,98220.13
2023-03-26T12:01:53.640Z,98216.06
2023-03-26T12:04:04.496Z,98216.03
2023-03-26T12:06:27.291Z,98220.06
2023-03-26T12:08:34.825Z,98217.09
2023-03-26T12:10:43.327Z,98218.94
2023-03-26T12:12:49.652Z,98219.22
2023-03-26T12:14:53.050Z,98220.00
2023-03-26T12:17:04.900Z,98207.53
2023-03-26T12:19:21.608Z,98205.16
2023-03-26T12:21:24.538Z,98205.94
2023-03-26T12:23:53.248Z,98202.44
2023-03-26T12:26:12.583Z,98192.75
2023-03-26T12:28:20.607Z,98198.44
2023-03-26T12:30:25.948Z,98193.88
2023-03-26T12:32:45.257Z,98197.69
2023-03-26T12:34:49.040Z,98190.66
2023-03-26T12:36:55.638Z,98185.00
2023-03-26T12:39:16.373Z,98177.47
2023-03-26T12:44:42.290Z,98178.81
2023-03-26T12:44:56.098Z,98176.59
2023-03-26T12:48:01.349Z,98176.06
2023-03-26T12:49:12.215Z,98181.44
2023-03-26T12:51:26.795Z,98177.44
2023-03-26T12:53:48.856Z,98177.38
2023-03-26T12:56:00.736Z,98173.88
2023-03-26T12:58:20.210Z,98170.28
2023-03-26T13:00:47.285Z,98176.78
2023-03-26T13:03:13.622Z,98170.28
2023-03-26T13:05:29.273Z,98165.38
2023-03-26T13:07:51.437Z,98156.47
2023-03-26T13:10:37.529Z,98143.41
2023-03-26T13:12:46.431Z,98144.56
2023-03-26T13:15:18.327Z,98142.50
2023-03-26T13:17:29.642Z,98140.38
2023-03-26T13:19:39.661Z,98127.06
2023-03-26T13:21:53.911Z,98132.47
2023-03-26T13:24:05.213Z,98131.38
2023-03-26T13:26:19.341Z,98124.94
2023-03-26T13:28:35.370Z,98129.75
2023-03-26T13:30:43.663Z,98120.59
2023-03-26T13:33:03.160Z,98120.59
2023-03-26T13:35:24.645Z,98123.09
2023-03-26T13:37:36.894Z,98123.25
2023-03-26T13:39:52.620Z,98110.69
2023-03-26T13:42:16.668Z,98122.88
2023-03-26T13:44:32.620Z,98119.09
2023-03-26T13:46:38.923Z,98115.81
2023-03-26T13:48:51.210Z,98116.34
2023-03-26T13:51:00.910Z,98115.09
2023-03-26T13:53:06.970Z,98119.94
2023-03-26T13:55:22.631Z,98112.16
2023-03-26T13:57:32.103Z,98110.31
2023-03-26T13:59:41.891Z,98115.72
2023-03-26T14:01:51.326Z,98105.16
2023-03-26T14:04:02.593Z,98101.69
2023-03-26T14:06:11.784Z,98103.03
2023-03-26T14:08:22.011Z,98100.06
2023-03-26T14:10:31.015Z,98094.97
2023-03-26T14:12:49.380Z,98091.19
2023-03-26T14:14:58.687Z,98083.09
2023-03-26T14:17:07.007Z,98082.03
2023-03-26T14:19:32.407Z,98087.94
2023-03-26T14:21:51.835Z,98083.63
2023-03-26T14:24:19.557Z,98078.78
2023-03-26T14:26:46.665Z,98076.09
2023-03-26T14:29:25.765Z,98077.16
2023-03-26T14:31:34.520Z,98081.47
2023-03-26T14:34:00.244Z,98077.16
2023-03-26T14:36:15.016Z,98079.56
2023-03-26T14:38:57.248Z,98079.88
2023-03-26T14:41:10.928Z,98079.03
2023-03-26T14:43:30.587Z,98077.94
2023-03-26T14:46:06.218Z,98075.00
2023-03-26T14:48:54.613Z,98066.38
2023-03-26T14:51:12.608Z,98071.22
2023-03-26T14:53:26.651Z,98074.72
2023-03-26T14:56:00.138Z,98067.16
2023-03-26T14:58:34.371Z,98066.94
2023-03-26T15:01:07.294Z,98064.22
2023-03-26T15:03:52.852Z,98062.84
2023-03-26T15:06:26.822Z,98053.16
2023-03-26T15:09:33.830Z,98053.97
2023-03-26T15:11:46.372Z,98052.34
2023-03-26T15:14:30.243Z,98048.84
2023-03-26T15:17:14.012Z,98050.72
2023-03-26T15:19:53.741Z,98043.47
2023-03-26T15:22:31.570Z,98034.84
2023-03-26T15:25:10.769Z,98042.63
2023-03-26T15:27:46.470Z,98040.47
2023-03-26T15:30:27.077Z,98033.69
2023-03-26T15:32:58.560Z,98041.47
2023-03-26T15:35:31.111Z,98035.03
2023-03-26T15:38:31.377Z,98034.75
2023-03-26T15:40:45.971Z,98035.59
2023-03-26T15:43:01.736Z,98028.25
2023-03-26T15:45:30.725Z,98026.13
2023-03-26T15:48:02.251Z,98025.56
2023-03-26T15:50:19.448Z,98026.09
2023-03-26T15:52:32.688Z,98020.16
2023-03-26T15:54:50.129Z,98024.72
2023-03-26T15:57:07.570Z,98023.63
2023-03-26T15:59:27.089Z,98020.16
2023-03-26T16:01:46.466Z,98018.78
2023-03-26T16:03:58.768Z,98017.16
2023-03-26T16:06:28.548Z,98016.06
2023-03-26T16:08:40.219Z,98005.28
2023-03-26T16:10:51.687Z,98013.88
2023-03-26T16:13:15.182Z,98005.03
2023-03-26T16:15:27.869Z,98012.22
2023-03-26T16:18:12.657Z,98004.44
2023-03-26T16:20:31.498Z,97999.00
2023-03-26T16:22:45.326Z,97996.53
2023-03-26T16:25:28.910Z,97997.34
2023-03-26T16:27:35.568Z,97993.91
2023-03-26T16:30:14.970Z,97992.53
2023-03-26T16:32:31.675Z,97997.69
2023-03-26T16:34:51.010Z,97993.94
2023-03-26T16:36:54.616Z,97991.75
2023-03-26T16:39:18.051Z,97990.00
2023-03-26T16:41:25.048Z,97993.78
2023-03-26T16:43:51.688Z,97994.94
2023-03-26T16:45:59.191Z,98003.72
2023-03-26T16:48:15.009Z,98001.84
2023-03-26T16:50:29.354Z,98005.13
2023-03-26T16:52:43.149Z,98012.59
2023-03-26T16:54:51.768Z,98005.84
2023-03-26T16:57:02.203Z,98009.22
2023-03-26T16:59:27.074Z,98002.16
2023-03-26T17:01:45.669Z,98014.13
2023-03-26T17:03:57.071Z,98011.88
2023-03-26T17:06:06.573Z,98003.03
2023-03-26T17:08:16.920Z,98008.47
2023-03-26T17:10:31.271Z,97999.56
2023-03-26T17:12:40.863Z,98005.50
2023-03-26T17:14:59.845Z,97997.34
2023-03-26T17:17:23.798Z,97993.75
2023-03-26T17:19:33.819Z,98004.47
2023-03-26T17:21:47.511Z,98004.41
2023-03-26T17:24:02.086Z,98005.22
2023-03-26T17:26:16.685Z,98000.38
2023-03-26T17:28:35.654Z,98007.81
2023-03-26T17:31:06.925Z,98006.78
2023-03-26T17:33:21.846Z,98019.94
2023-03-26T17:35:47.170Z,98003.00
2023-03-26T17:37:50.765Z,98012.06
2023-03-26T17:40:20.972Z,98014.69
2023-03-26T17:42:27.785Z,98014.19
2023-03-26T17:44:49.490Z,98010.94
2023-03-26T17:46:58.239Z,98008.75
2023-03-26T17:49:06.257Z,98002.81
2023-03-26T17:51:27.905Z,98001.75
2023-03-26T17:53:33.331Z,97997.34
2023-03-26T17:55:39.120Z,98009.06
2023-03-26T17:57:46.098Z,98008.03
2023-03-26T17:59:51.529Z,98011.22
2023-03-26T18:01:59.949Z,98014.63
2023-03-26T18:04:04.809Z,98011.44
2023-03-26T18:06:11.292Z,98013.19
2023-03-26T18:08:32.721Z,98019.31
2023-03-26T18:11:06.309Z,98015.28
2023-03-26T18:13:23.733Z,98009.06
2023-03-26T18:15:34.572Z,98010.19
2023-03-26T18:17:46.320Z,98019.00
2023-03-26T18:19:52.067Z,98016.34
2023-03-26T18:21:58.270Z,98024.34
2023-03-26T18:24:03.085Z,98014.91
2023-03-26T18:26:16.170Z,98014.34
2023-03-26T18:28:19.001Z,98016.22
2023-03-26T18:30:23.851Z,98008.72
2023-03-26T18:32:31.307Z,98011.97
2023-03-26T18:34:40.368Z,98020.59
2023-03-26T18:36:43.371Z,98021.91
2023-03-26T18:38:47.086Z,98012.75
2023-03-26T18:40:54.255Z,98018.59
2023-03-26T18:42:59.646Z,98023.41
2023-03-26T18:45:07.526Z,98022.06
2023-03-26T18:47:12.573Z,98032.22
2023-03-26T18:49:17.373Z,98035.13
2023-03-26T18:51:23.471Z,98018.44
2023-03-26T18:53:30.126Z,98016.50
2023-03-26T18:55:39.751Z,98016.50
2023-03-26T18:57:43.648Z,98014.31
2023-03-26T18:59:50.646Z,98011.81
2023-03-26T19:01:55.892Z,98009.13
2023-03-26T19:04:00.237Z,98011.59
2023-03-26T19:06:08.526Z,98015.88
2023-03-26T19:08:13.573Z,98007.44
2023-03-26T19:10:22.470Z,98000.22
2023-03-26T19:12:31.807Z,98002.47
2023-03-26T19:14:51.369Z,97995.50
2023-03-26T19:16:58.054Z,98002.09
2023-03-26T19:19:02.815Z,97998.28
2023-03-26T19:21:06.014Z,98000.97
2023-03-26T19:23:15.295Z,97984.19
2023-03-26T19:25:22.147Z,97983.47
2023-03-26T19:27:25.535Z,97986.41
2023-03-26T19:29:31.921Z,97980.28
2023-03-26T19:31:37.026Z,97986.47
2023-03-26T19:33:42.446Z,97980.50
2023-03-26T19:35:46.645Z,97978.50
2023-03-26T19:37:51.607Z,97976.91
2023-03-26T19:40:07.010Z,97971.66
2023-03-26T19:42:14.855Z,97965.78
2023-03-26T19:44:21.603Z,97956.38
2023-03-26T19:46:25.995Z,97963.78
2023-03-26T19:48:45.928Z,97971.50
2023-03-26T19:51:05.085Z,97957.28
2023-03-26T19:53:19.206Z,97955.16
2023-03-26T19:55:27.472Z,97965.25
2023-03-26T19:57:32.860Z,97962.47
2023-03-26T19:59:35.853Z,97958.19
2023-03-26T20:01:38.760Z,97948.13
2023-03-26T20:03:43.272Z,97949.75
2023-03-26T20:05:46.303Z,97949.28
2023-03-26T20:07:50.539Z,97949.38
2023-03-26T20:09:53.772Z,97950.66
2023-03-26T20:11:58.373Z,97949.38
2023-03-26T20:14:01.906Z,97953.75
2023-03-26T20:16:10.977Z,97951.38
2023-03-26T20:18:14.171Z,97946.13
2023-03-26T20:20:18.017Z,97942.72
2023-03-26T20:22:20.978Z,97938.97
2023-03-26T20:24:26.306Z,97943.84
2023-03-26T20:26:29.147Z,97931.50
2023-03-26T20:28:42.382Z,97935.81
2023-03-26T20:30:54.890Z,97929.81
2023-03-26T20:33:11.793Z,97926.16
2023-03-26T20:35:20.728Z,97920.91
2023-03-26T20:37:39.347Z,97923.31
2023-03-26T20:39:42.469Z,97915.53
2023-03-26T20:41:47.926Z,97914.91
2023-03-26T20:43:55.367Z,97908.47
2023-03-26T20:45:58.929Z,97904.44
2023-03-26T20:48:03.108Z,97903.94
2023-03-26T20:50:07.089Z,97897.47
2023-03-26T20:52:14.007Z,97903.38
2023-03-26T20:54:19.304Z,97895.34
2023-03-26T20:56:22.375Z,97894.53
2023-03-26T20:58:31.318Z,97894.72
2023-03-26T21:00:37.437Z,97891.47
2023-03-26T21:02:42.018Z,97886.84
2023-03-26T21:04:47.631Z,97877.44
2023-03-26T21:06:53.238Z,97890.41
2023-03-26T21:08:58.873Z,97884.16
2023-03-26T21:11:03.393Z,97887.72
2023-03-26T21:13:11.970Z,97884.81
2023-03-26T21:15:23.147Z,97885.94
2023-03-26T21:17:29.182Z,97881.97
2023-03-26T21:19:33.326Z,97885.94
2023-03-26T21:21:48.148Z,97891.78
2023-03-26T21:23:59.552Z,97891.06
2023-03-26T21:26:07.485Z,97893.19
2023-03-26T21:28:39.832Z,97885.38
2023-03-26T21:30:47.312Z,97880.44
2023-03-26T21:32:52.360Z,97884.16
2023-03-26T21:34:59.239Z,97882.06
2023-03-26T21:37:03.150Z,97878.19
2023-03-26T21:39:06.918Z,97876.72
2023-03-26T21:41:26.450Z,97873.19
2023-03-26T21:43:29.511Z,97867.31
2023-03-26T21:45:33.493Z,97863.41
2023-03-26T21:47:37.113Z,97862.13
2023-03-26T21:49:42.350Z,97859.47
2023-03-26T21:51:46.432Z,97859.22
2023-03-26T21:53:49.912Z,97866.72
2023-03-26T21:56:02.432Z,97858.22
2023-03-26T21:58:17.066Z,97871.09
2023-03-26T22:00:33.572Z,97873.00
2023-03-26T22:02:59.978Z,97872.75
2023-03-26T22:05:13.427Z,97861.47
2023-03-26T22:07:19.677Z,97857.09
2023-03-26T22:09:35.515Z,97852.72
2023-03-26T22:11:39.175Z,97847.34
2023-03-26T22:13:42.474Z,97846.19
2023-03-26T22:15:46.532Z,97844.59
2023-03-26T22:17:54.268Z,97853.41
2023-03-26T22:19:57.354Z,97851.53
2023-03-26T22:22:02.042Z,97849.31
2023-03-26T22:24:07.398Z,97851.41
2023-03-26T22:26:10.365Z,97859.09
2023-03-26T22:28:14.079Z,97858.72
2023-03-26T22:30:17.802Z,97859.84
2023-03-26T22:32:20.677Z,97854.81
2023-03-26T22:34:23.956Z,97850.75
2023-03-26T22:36:27.965Z,97856.09
2023-03-26T22:38:32.467Z,97854.00
2023-03-26T22:40:35.476Z,97858.22
2023-03-26T22:42:38.360Z,97852.16
2023-03-26T22:44:41.581Z,97855.78
2023-03-26T22:46:46.399Z,97850.69
2023-03-26T22:48:49.700Z,97849.69
2023-03-26T22:51:00.206Z,97850.28
2023-03-26T22:53:03.094Z,97841.84
2023-03-26T22:55:09.155Z,97846.72
2023-03-26T22:57:12.376Z,97842.41
2023-03-26T22:59:15.956Z,97847.19
2023-03-26T23:01:22.105Z,97839.50
2023-03-26T23:03:35.263Z,97841.94
2023-03-26T23:05:38.996Z,97842.53
2023-03-26T23:07:42.843Z,97839.03
2023-03-26T23:09:46.074Z,97836.59
2023-03-26T23:11:50.866Z,97832.84
2023-03-26T23:13:53.756Z,97824.84
2023-03-26T23:15:57.516Z,97835.53
2023-03-26T23:18:00.611Z,97835.53
2023-03-26T23:20:06.478Z,97822.41
2023-03-26T23:22:09.366Z,97822.41
2023-03-26T23:24:12.325Z,97820.78
2023-03-26T23:26:15.836Z,97824.66
2023-03-26T23:28:20.716Z,97831.88
2023-03-26T23:30:25.328Z,97824.78
2023-03-26T23:32:28.811Z,97822.66
2023-03-26T23:34:32.401Z,97817.31
2023-03-26T23:36:35.477Z,97823.69
2023-03-26T23:38:44.263Z,97817.47
2023-03-26T23:40:57.484Z,97813.66
2023-03-26T23:43:01.001Z,97819.72
2023-03-26T23:45:06.565Z,97822.19
2023-03-26T23:47:11.637Z,97824.03
2023-03-26T23:49:15.202Z,97824.09
2023-03-26T23:51:20.399Z,97818.38
2023-03-26T23:53:25.196Z,97817.94
2023-03-26T23:55:28.159Z,97809.91
2023-03-26T23:57:31.114Z,97809.19
2023-03-26T23:59:35.802Z,97814.38
